Time;durP1;ratioP1;P1;durP2;ratioP2;P2;SDS_P1;SDS_P2;PMS_P1;PMS_P2;Temp;Humidity;BMP_temperature;BMP_pressure;BME280_temperature;BME280_humidity;BME280_pressure;Samples;Min_cycle;Max_cycle;Signal;HPM_P1;HPM_P2
2022/09/07 00:02:09;;;;;;;5.45;3.13;;;;;;;17.12;86.33;101184.31;5029145;28;20472;-80
2022/09/07 00:04:34;;;;;;;4.60;2.65;;;;;;;17.21;87.20;101209.56;5029504;28;20456;-80
2022/09/07 00:07:00;;;;;;;5.13;2.92;;;;;;;17.14;87.24;101240.00;5035795;28;20029;-80
2022/09/07 00:09:25;;;;;;;7.10;3.17;;;;;;;17.32;87.35;101253.84;5034884;28;20065;-82
2022/09/07 00:11:51;;;;;;;7.10;3.25;;;;;;;17.26;87.73;101243.97;5043722;28;20020;-83
2022/09/07 00:14:16;;;;;;;5.30;3.13;;;;;;;17.32;88.32;101248.59;5033420;28;20080;-83
2022/09/07 00:16:41;;;;;;;6.68;3.47;;;;;;;17.41;88.21;101245.00;5025449;28;20025;-83
2022/09/07 00:19:07;;;;;;;7.15;3.45;;;;;;;17.43;87.74;101235.19;5026597;28;20365;-82
2022/09/07 00:21:32;;;;;;;6.93;3.60;;;;;;;17.45;87.58;101217.50;5047152;28;20029;-82
2022/09/07 00:23:57;;;;;;;5.85;3.22;;;;;;;17.41;87.56;101221.41;5043090;28;20061;-82
2022/09/07 00:26:28;;;;;;;4.68;2.95;;;;;;;17.37;87.26;101225.31;5047094;28;20096;-82
2022/09/07 00:28:58;;;;;;;5.07;3.33;;;;;;;17.61;87.51;101231.63;5037655;28;20035;-82
2022/09/07 00:31:25;;;;;;;5.75;3.50;;;;;;;17.53;87.82;101241.09;5046156;28;20029;-82
2022/09/07 00:33:52;;;;;;;5.38;3.42;;;;;;;17.43;87.09;101260.56;5028786;28;20032;-82
2022/09/07 00:36:18;;;;;;;5.28;3.38;;;;;;;17.35;87.98;101268.44;5038774;28;20491;-82
2022/09/07 00:38:44;;;;;;;4.95;2.97;;;;;;;17.40;87.20;101266.97;5017168;28;20032;-82
2022/09/07 00:41:10;;;;;;;4.78;3.17;;;;;;;17.35;87.67;101268.44;5025328;28;20077;-82
2022/09/07 00:43:42;;;;;;;6.03;3.15;;;;;;;17.37;87.33;101256.78;5028186;28;20036;-82
2022/09/07 00:46:19;;;;;;;5.88;3.58;;;;;;;17.29;86.77;101221.88;5029080;28;20025;-82
2022/09/07 00:48:54;;;;;;;6.10;4.07;;;;;;;17.25;87.78;101210.88;5025767;28;20025;-82
2022/09/07 00:51:43;;;;;;;7.80;4.43;;;;;;;17.15;88.75;101218.06;5047194;28;20024;-82
2022/09/07 00:54:13;;;;;;;5.47;4.00;;;;;;;17.28;87.59;101231.53;5019394;28;20045;-81
2022/09/07 00:56:42;;;;;;;6.30;4.03;;;;;;;17.11;87.75;101224.59;5046826;28;20107;-81
2022/09/07 00:59:09;;;;;;;4.75;3.65;;;;;;;17.09;88.63;101218.66;5046514;28;20074;-81
2022/09/07 01:01:35;;;;;;;4.40;3.47;;;;;;;17.26;88.28;101225.63;5046606;28;20029;-81
2022/09/07 01:04:02;;;;;;;4.75;3.33;;;;;;;17.09;88.50;101216.06;5046417;28;20020;-81
2022/09/07 01:06:35;;;;;;;5.75;3.80;;;;;;;17.06;89.56;101195.41;5047291;28;20025;-82
2022/09/07 01:09:10;;;;;;;5.05;3.35;;;;;;;16.96;89.20;101172.78;5027141;28;20048;-83
2022/09/07 01:11:49;;;;;;;;;;;;;;;;;;;;;
2022/09/07 01:14:20;;;;;;;4.85;3.63;;;;;;;16.83;89.49;101172.41;5042866;28;20053;-82
2022/09/07 01:17:50;;;;;;;6.22;4.00;;;;;;;16.90;89.47;101181.25;5029599;28;20041;-82
2022/09/07 01:20:41;;;;;;;6.32;4.20;;;;;;;16.79;90.63;101171.06;4942485;28;20039;-83
2022/09/07 01:23:40;;;;;;;4.95;3.72;;;;;;;16.72;90.30;101167.44;5026316;28;20102;-82
2022/09/07 01:26:24;;;;;;;6.28;3.60;;;;;;;16.79;89.70;101171.06;5017352;28;20070;-82
2022/09/07 01:29:16;;;;;;;5.82;3.75;;;;;;;16.61;91.03;101154.59;5041301;28;20024;-82
2022/09/07 01:32:00;;;;;;;4.93;3.50;;;;;;;16.77;90.37;101154.69;5029985;28;20120;-82
2022/09/07 01:34:26;;;;;;;6.38;3.75;;;;;;;16.69;90.32;101157.25;5044817;28;20520;-82
2022/09/07 01:37:25;;;;;;;5.18;3.60;;;;;;;16.71;90.79;101165.81;5043601;28;20108;-82
2022/09/07 01:39:59;;;;;;;6.22;3.55;;;;;;;16.50;90.69;101157.47;5026606;28;20493;-82
2022/09/07 01:42:31;;;;;;;5.45;3.72;;;;;;;16.53;91.54;101165.03;5044899;28;20029;-82
2022/09/07 01:45:00;;;;;;;4.78;3.58;;;;;;;16.56;91.34;101156.84;5044152;28;20021;-82
2022/09/07 01:47:32;;;;;;;5.22;3.65;;;;;;;16.57;91.30;101168.97;5026656;28;20089;-83
2022/09/07 01:50:10;;;;;;;5.10;3.60;;;;;;;16.60;91.09;101164.25;5026789;28;20033;-82
2022/09/07 01:52:46;;;;;;;5.45;3.72;;;;;;;16.59;91.74;101172.25;5027198;28;20029;-82
2022/09/07 01:55:23;;;;;;;4.72;3.72;;;;;;;16.72;91.46;101172.69;5010534;28;20826;-82
2022/09/07 01:58:07;;;;;;;5.30;3.55;;;;;;;16.69;91.87;101168.56;5020247;28;20060;-82
2022/09/07 02:00:34;;;;;;;4.55;3.90;;;;;;;16.73;90.96;101159.41;5025521;28;20040;-82
2022/09/07 02:03:12;;;;;;;6.10;4.00;;;;;;;16.68;92.27;101174.75;5030001;28;20056;-82
2022/09/07 02:06:17;;;;;;;5.18;3.92;;;;;;;16.77;91.66;101159.94;5045184;28;20021;-81
2022/09/07 02:08:52;;;;;;;7.57;4.20;;;;;;;16.75;90.89;101156.66;5045475;28;20110;-82
2022/09/07 02:11:26;;;;;;;6.55;4.53;;;;;;;16.64;91.58;101143.81;5042200;28;20037;-81
2022/09/07 02:13:58;;;;;;;5.20;4.07;;;;;;;16.71;90.60;101137.00;5005998;28;1128716;-82
2022/09/07 02:16:29;;;;;;;5.70;4.30;;;;;;;16.78;90.99;101140.63;5049064;28;20037;-82
2022/09/07 02:19:02;;;;;;;6.15;4.07;;;;;;;16.91;89.89;101135.75;5030928;28;20021;-81
2022/09/07 02:21:36;;;;;;;6.45;4.40;;;;;;;16.77;91.22;101133.75;5037674;28;20033;-81
2022/09/07 02:24:10;;;;;;;6.40;4.68;;;;;;;16.78;91.06;101134.56;5037158;28;20025;-82
2022/09/07 02:26:39;;;;;;;6.53;4.72;;;;;;;16.75;90.52;101124.41;5034025;28;20036;-81
2022/09/07 02:29:04;;;;;;;6.18;4.47;;;;;;;16.75;90.16;101127.84;5034882;28;20400;-81
2022/09/07 02:31:30;;;;;;;6.25;4.65;;;;;;;16.65;90.37;101124.50;5026003;28;20047;-82
2022/09/07 02:33:55;;;;;;;7.07;4.80;;;;;;;16.70;90.87;101140.56;5049611;28;20071;-82
2022/09/07 02:36:25;;;;;;;7.07;5.57;;;;;;;16.67;91.20;101148.72;5049142;28;20453;-82
2022/09/07 02:38:51;;;;;;;7.72;5.50;;;;;;;16.73;90.62;101148.13;5039935;28;20033;-81
2022/09/07 02:41:29;;;;;;;8.10;5.50;;;;;;;16.77;90.83;101146.84;5027194;28;20385;-81
2022/09/07 02:43:55;;;;;;;6.93;5.47;;;;;;;16.76;90.12;101137.34;5048009;28;20447;-82
2022/09/07 02:46:24;;;;;;;7.07;5.60;;;;;;;16.79;89.72;101146.66;5044951;28;20276;-81
2022/09/07 02:49:17;;;;;;;8.40;5.90;;;;;;;16.85;89.81;101128.50;5047879;28;20087;-82
2022/09/07 02:52:13;;;;;;;6.55;5.68;;;;;;;16.79;89.90;101126.53;5041022;28;20037;-82
2022/09/07 02:55:20;;;;;;;7.75;6.30;;;;;;;16.81;90.80;101121.97;5035182;28;20033;-81
2022/09/07 02:58:17;;;;;;;7.95;6.50;;;;;;;16.78;90.67;101114.41;4973229;28;20050;-82
2022/09/07 03:01:07;;;;;;;8.30;6.28;;;;;;;16.76;90.13;101105.91;4948121;28;20047;-81
2022/09/07 03:03:54;;;;;;;8.60;6.93;;;;;;;16.81;90.35;101118.53;4946178;28;20107;-81
2022/09/07 03:06:28;;;;;;;9.55;7.07;;;;;;;16.71;89.87;101118.66;4947836;29;20047;-82
2022/09/07 03:08:57;;;;;;;8.68;6.60;;;;;;;16.69;90.07;101115.34;4947992;28;20094;-81
2022/09/07 03:11:23;;;;;;;8.90;6.65;;;;;;;16.64;90.67;101117.63;4947454;28;20122;-82
2022/09/07 03:13:48;;;;;;;8.65;6.53;;;;;;;16.71;90.50;101118.66;4932107;29;20058;-82
2022/09/07 03:16:14;;;;;;;8.68;6.75;;;;;;;16.65;90.34;101112.22;4947094;28;20035;-82
2022/09/07 03:18:42;;;;;;;8.95;7.22;;;;;;;16.75;90.66;101117.38;4947845;28;20534;-82
2022/09/07 03:21:08;;;;;;;8.82;7.00;;;;;;;16.77;90.37;101112.78;4947536;29;20098;-81
2022/09/07 03:23:36;;;;;;;8.05;6.97;;;;;;;16.75;90.02;101120.00;4931454;29;20027;-82
2022/09/07 03:26:01;;;;;;;7.63;6.87;;;;;;;16.63;90.18;101126.44;4930946;29;20031;-81
2022/09/07 03:28:27;;;;;;;8.68;6.55;;;;;;;16.67;89.88;101117.28;4931661;29;20825;-81
2022/09/07 03:30:52;;;;;;;8.20;6.78;;;;;;;16.56;90.39;101114.94;4948052;29;20505;-82
2022/09/07 03:33:17;;;;;;;8.98;6.75;;;;;;;16.60;90.15;101122.34;4938481;28;20092;-82
2022/09/07 03:35:44;;;;;;;7.55;6.43;;;;;;;16.71;90.22;101123.91;4987059;28;20105;-81
2022/09/07 03:38:09;;;;;;;9.10;6.50;;;;;;;16.76;90.01;101116.38;5031298;28;20055;-82
2022/09/07 03:40:35;;;;;;;8.65;6.70;;;;;;;16.81;89.98;101129.84;5029867;28;20029;-81
2022/09/07 03:43:00;;;;;;;7.75;6.35;;;;;;;16.73;89.53;101116.69;5035074;28;20020;-81
2022/09/07 03:45:26;;;;;;;7.88;6.53;;;;;;;16.76;89.27;101121.63;5044733;28;20027;-82
2022/09/07 03:47:51;;;;;;;8.85;6.50;;;;;;;16.75;89.44;101130.47;5030107;28;20043;-81
2022/09/07 03:50:17;;;;;;;7.45;5.93;;;;;;;16.71;89.37;101123.91;5025221;28;20035;-81
2022/09/07 03:52:43;;;;;;;9.07;6.40;;;;;;;16.76;89.04;101124.25;5027354;28;20033;-81
2022/09/07 03:55:08;;;;;;;8.18;6.25;;;;;;;16.72;89.78;101126.34;5015090;28;20070;-81
2022/09/07 03:57:34;;;;;;;7.32;6.28;;;;;;;16.44;90.13;101123.06;5028145;28;20063;-81
2022/09/07 04:00:00;;;;;;;7.10;6.40;;;;;;;16.38;90.46;101134.16;5029704;28;20035;-81
2022/09/07 04:02:26;;;;;;;8.50;6.93;;;;;;;16.26;91.40;101119.72;5025085;28;20082;-81
2022/09/07 04:04:51;;;;;;;8.02;7.05;;;;;;;16.26;91.63;101124.13;5032825;28;20021;-81
2022/09/07 04:07:17;;;;;;;9.20;7.75;;;;;;;16.37;91.69;101121.25;5028536;28;20036;-82
2022/09/07 04:09:42;;;;;;;8.73;6.93;;;;;;;16.36;91.65;101136.13;5016652;28;20017;-81
2022/09/07 04:12:07;;;;;;;9.95;7.40;;;;;;;16.28;92.17;101141.31;5027764;28;20037;-81
2022/09/07 04:14:33;;;;;;;10.85;7.75;;;;;;;16.27;92.57;101142.28;5033256;28;20411;-81
2022/09/07 04:17:00;;;;;;;8.32;7.47;;;;;;;16.17;93.19;101136.31;5026458;28;20485;-82
2022/09/07 04:19:25;;;;;;;8.77;7.85;;;;;;;16.15;92.84;101122.59;5026453;28;20029;-82
2022/09/07 04:21:51;;;;;;;8.40;7.47;;;;;;;16.17;93.51;101125.84;5030141;28;20021;-81
2022/09/07 04:24:16;;;;;;;8.68;7.05;;;;;;;16.24;92.44;101105.97;5029355;28;20492;-82
2022/09/07 04:26:43;;;;;;;9.52;7.63;;;;;;;16.17;92.93;101107.53;5047698;28;20505;-81
2022/09/07 04:29:09;;;;;;;10.82;8.00;;;;;;;16.10;93.46;101094.25;5029213;28;20055;-82
2022/09/07 04:31:35;;;;;;;9.45;7.82;;;;;;;16.16;93.05;101098.06;5028375;28;20041;-82
2022/09/07 04:34:01;;;;;;;8.70;7.78;;;;;;;16.22;93.07;101092.19;5029664;28;20250;-82
2022/09/07 04:36:27;;;;;;;10.70;8.40;;;;;;;16.18;93.00;101093.50;5028809;28;20040;-81
2022/09/07 04:39:03;;;;;;;9.13;8.23;;;;;;;16.29;93.94;101097.66;5029492;28;20027;-81
2022/09/07 04:41:30;;;;;;;9.55;8.50;;;;;;;16.34;93.21;101090.94;5045292;28;20382;-81
2022/09/07 04:43:58;;;;;;;9.65;8.32;;;;;;;16.25;93.33;101091.09;5029821;28;20472;-82
2022/09/07 04:46:32;;;;;;;9.48;8.38;;;;;;;16.16;93.54;101093.63;5028092;28;20021;-82
2022/09/07 04:49:04;;;;;;;9.63;8.63;;;;;;;16.16;93.04;101095.44;5029924;28;20053;-81
2022/09/07 04:51:31;;;;;;;9.55;8.57;;;;;;;16.10;93.65;101093.44;5029136;28;20291;-81
2022/09/07 04:53:59;;;;;;;10.65;9.55;;;;;;;16.06;94.10;101087.72;5043497;28;20132;-81
2022/09/07 04:56:26;;;;;;;10.30;9.07;;;;;;;16.04;93.92;101088.81;5029222;28;20031;-81
2022/09/07 04:58:52;;;;;;;10.43;9.33;;;;;;;16.12;93.83;101086.28;5031234;28;20033;-81
2022/09/07 05:01:20;;;;;;;10.48;8.93;;;;;;;16.07;94.00;101093.75;5018319;28;20040;-81
2022/09/07 05:03:46;;;;;;;10.57;9.48;;;;;;;16.16;93.61;101083.16;5029116;28;20052;-81
2022/09/07 05:06:13;;;;;;;10.32;9.30;;;;;;;16.27;92.98;101095.19;5044739;28;20051;-81
2022/09/07 05:08:44;;;;;;;11.02;9.85;;;;;;;16.12;94.07;101096.75;5025827;28;20530;-81
2022/09/07 05:11:11;;;;;;;9.95;9.05;;;;;;;16.07;93.97;101093.75;5016252;28;20505;-81
2022/09/07 05:13:37;;;;;;;11.10;9.93;;;;;;;16.06;93.38;101082.47;5046588;28;20049;-81
2022/09/07 05:16:08;;;;;;;10.65;9.68;;;;;;;15.99;93.85;101093.69;5029023;28;20472;-81
2022/09/07 05:18:34;;;;;;;10.50;9.50;;;;;;;16.02;93.46;101096.03;5031585;28;20373;-81
2022/09/07 05:21:14;;;;;;;11.30;9.40;;;;;;;16.05;94.12;101100.94;5037362;28;20460;-81
2022/09/07 05:23:40;;;;;;;11.18;10.13;;;;;;;16.10;93.78;101109.13;5028749;28;20029;-82
2022/09/07 05:26:07;;;;;;;11.18;10.07;;;;;;;16.23;92.62;101120.03;5046652;28;20013;-81
2022/09/07 05:28:34;;;;;;;10.93;9.90;;;;;;;16.34;92.90;101122.38;5028277;28;20032;-81
2022/09/07 05:31:08;;;;;;;10.77;9.68;;;;;;;16.35;92.58;101124.03;5036472;28;20161;-80
2022/09/07 05:33:33;;;;;;;11.45;10.38;;;;;;;16.30;92.52;101126.28;5041452;28;20028;-81
2022/09/07 05:35:59;;;;;;;12.23;10.82;;;;;;;16.26;92.71;101124.94;5032809;28;20025;-81
2022/09/07 05:38:25;;;;;;;11.88;10.77;;;;;;;16.25;92.96;101123.31;5027742;28;20021;-81
2022/09/07 05:40:51;;;;;;;14.27;10.95;;;;;;;16.08;93.52;101137.25;5039332;28;20047;-81
2022/09/07 05:43:16;;;;;;;12.25;10.82;;;;;;;16.15;93.77;101136.50;5037932;28;20036;-81
2022/09/07 05:45:42;;;;;;;13.05;11.00;;;;;;;16.04;93.71;101133.31;5023374;28;20476;-81
2022/09/07 05:48:07;;;;;;;13.35;11.73;;;;;;;16.06;93.97;101134.00;5034726;28;20025;-81
2022/09/07 05:50:34;;;;;;;13.30;11.40;;;;;;;15.97;94.55;101140.13;5034205;28;20366;-81
2022/09/07 05:52:59;;;;;;;13.77;12.32;;;;;;;16.06;94.63;101136.59;5034023;28;20033;-81
2022/09/07 05:55:25;;;;;;;12.68;11.38;;;;;;;16.03;94.32;101135.09;5048539;28;20029;-82
2022/09/07 05:57:50;;;;;;;12.35;11.15;;;;;;;15.92;94.00;101128.31;5044987;28;20025;-81
2022/09/07 06:00:15;;;;;;;13.25;11.93;;;;;;;16.02;94.03;101135.25;5043894;28;20388;-81
2022/09/07 06:02:41;;;;;;;12.60;11.40;;;;;;;16.00;94.59;101135.44;5029133;28;20053;-82
2022/09/07 06:05:09;;;;;;;14.32;12.93;;;;;;;15.97;94.88;101129.66;5038652;28;20039;-82
2022/09/07 06:07:35;;;;;;;13.85;12.32;;;;;;;16.03;94.75;101129.06;5031745;28;20057;-81
2022/09/07 06:10:00;;;;;;;13.73;12.32;;;;;;;15.94;95.00;101115.06;5050424;28;20086;-82
2022/09/07 06:12:26;;;;;;;14.65;13.23;;;;;;;15.99;95.02;101139.00;5042514;28;20029;-81
2022/09/07 06:14:51;;;;;;;14.48;13.07;;;;;;;16.03;95.45;101129.06;5031928;28;20067;-82
2022/09/07 06:17:16;;;;;;;14.70;13.35;;;;;;;16.01;95.81;101126.59;5048711;28;20025;-81
2022/09/07 06:19:42;;;;;;;14.48;13.15;;;;;;;15.96;95.29;101134.09;5049750;28;20025;-81
2022/09/07 06:22:07;;;;;;;13.05;11.82;;;;;;;16.20;94.71;101131.63;5035146;28;20025;-82
2022/09/07 06:24:32;;;;;;;14.07;12.77;;;;;;;16.18;94.02;101128.34;5039675;28;20036;-81
2022/09/07 06:26:58;;;;;;;14.82;13.43;;;;;;;16.12;95.13;101128.16;5034218;28;20053;-80
2022/09/07 06:29:23;;;;;;;14.85;13.40;;;;;;;16.13;94.60;101132.41;5034584;28;20470;-80
2022/09/07 06:31:48;;;;;;;14.25;12.98;;;;;;;16.11;95.00;101136.94;5045453;28;20024;-80
2022/09/07 06:34:13;;;;;;;14.25;12.95;;;;;;;16.09;95.53;101136.28;5049201;28;20059;-80
2022/09/07 06:36:39;;;;;;;15.45;13.95;;;;;;;16.13;95.97;101138.44;5046323;28;20096;-79
2022/09/07 06:39:04;;;;;;;15.20;13.88;;;;;;;16.07;95.37;101138.25;5048791;28;20028;-80
2022/09/07 06:41:30;;;;;;;15.90;14.40;;;;;;;16.09;95.69;101149.38;5035438;28;20057;-79
2022/09/07 06:43:56;;;;;;;16.73;15.23;;;;;;;16.13;95.50;101163.81;5034458;28;20412;-79
2022/09/07 06:46:23;;;;;;;17.08;15.48;;;;;;;16.13;95.76;101155.94;5036598;28;20017;-80
2022/09/07 06:48:54;;;;;;;19.27;17.38;;;;;;;16.13;95.91;101145.47;5021150;28;20070;-80
2022/09/07 06:51:27;;;;;;;18.98;17.27;;;;;;;16.26;96.31;101151.13;5029286;28;20033;-80
2022/09/07 06:53:55;;;;;;;19.75;17.98;;;;;;;16.25;96.18;101149.47;5035868;28;20159;-80
2022/09/07 06:56:21;;;;;;;20.17;18.38;;;;;;;16.30;96.36;101152.47;5035520;28;20030;-80
2022/09/07 06:58:46;;;;;;;22.58;20.58;;;;;;;16.43;96.14;101152.84;5032123;28;20180;-81
2022/09/07 07:01:13;;;;;;;25.30;22.92;;;;;;;16.45;96.90;101145.66;5035689;28;20115;-80
2022/09/07 07:03:40;;;;;;;25.35;23.23;;;;;;;16.55;96.97;101155.22;5026234;28;20433;-80
2022/09/07 07:06:06;;;;;;;27.38;24.88;;;;;;;16.52;96.81;101151.13;5038904;28;20332;-80
2022/09/07 07:08:32;;;;;;;27.20;24.70;;;;;;;16.68;96.75;101150.34;5038786;28;20063;-80
2022/09/07 07:11:11;;;;;;;27.00;24.63;;;;;;;16.78;96.98;101151.09;5048712;28;20047;-81
2022/09/07 07:13:38;;;;;;;28.23;25.65;;;;;;;16.79;95.74;101142.25;5043435;28;20049;-81
2022/09/07 07:16:08;;;;;;;28.65;26.08;;;;;;;16.84;95.57;101144.41;5040794;28;20155;-81
2022/09/07 07:18:33;;;;;;;29.17;26.48;;;;;;;16.89;94.79;101156.06;5046219;28;20120;-80
2022/09/07 07:21:07;;;;;;;27.70;25.20;;;;;;;16.96;94.71;101159.66;5046737;28;20116;-80
2022/09/07 07:23:34;;;;;;;28.08;25.60;;;;;;;17.07;94.73;101165.59;5045106;28;20040;-81
2022/09/07 07:26:11;;;;;;;30.08;27.17;;;;;;;17.11;95.55;101159.06;5041117;28;20017;-80
2022/09/07 07:28:37;;;;;;;30.45;27.63;;;;;;;17.10;95.51;101153.00;5038132;28;20036;-81
2022/09/07 07:31:05;;;;;;;29.85;27.25;;;;;;;17.14;95.44;101161.34;5047941;28;20029;-81
2022/09/07 07:36:24;;;;;;;30.85;27.95;;;;;;;17.32;95.22;101169.94;5047926;28;20397;-81
2022/09/07 07:38:52;;;;;;;29.88;27.17;;;;;;;17.45;94.87;101165.03;5030186;28;20398;-80
2022/09/07 07:41:21;;;;;;;30.92;28.02;;;;;;;17.55;94.64;101169.31;5035204;28;20029;-80
2022/09/07 07:43:47;;;;;;;32.10;29.20;;;;;;;17.50;93.99;101167.19;5039592;28;20053;-80
2022/09/07 07:46:14;;;;;;;31.80;28.80;;;;;;;17.44;94.52;101179.16;5043814;28;20017;-80
2022/09/07 07:48:40;;;;;;;32.30;29.48;;;;;;;17.42;93.97;101170.59;5030205;28;20032;-82
2022/09/07 07:51:10;;;;;;;33.53;30.42;;;;;;;17.39;94.21;101172.75;5030905;28;20016;-82
2022/09/07 07:53:37;;;;;;;32.15;29.02;;;;;;;17.39;93.90;101176.19;5029917;28;20444;-81
2022/09/07 07:56:04;;;;;;;34.75;31.55;;;;;;;17.49;93.34;101192.59;5047661;28;20457;-81
2022/09/07 07:58:31;;;;;;;33.55;30.55;;;;;;;17.59;93.36;101196.84;5047639;28;20070;-81
2022/09/07 08:01:16;;;;;;;34.67;31.58;;;;;;;17.59;93.44;101200.31;5029782;28;20113;-81
2022/09/07 08:03:43;;;;;;;34.22;31.23;;;;;;;17.45;93.27;101201.75;5035750;28;20484;-82
2022/09/07 08:06:12;;;;;;;33.80;30.75;;;;;;;17.48;92.85;101201.44;5028699;28;20108;-82
2022/09/07 08:08:37;;;;;;;36.03;32.85;;;;;;;17.51;93.13;101190.63;5029549;28;20025;-82
2022/09/07 08:11:08;;;;;;;36.05;32.85;;;;;;;17.60;93.00;101198.50;5047014;28;20373;-80
2022/09/07 08:13:39;;;;;;;37.60;34.30;;;;;;;17.65;93.71;101211.94;5046985;28;20057;-81
2022/09/07 08:16:04;;;;;;;35.78;32.58;;;;;;;17.81;92.99;101212.00;5046106;28;20025;-81
2022/09/07 08:18:32;;;;;;;35.50;32.50;;;;;;;17.80;93.88;101220.88;5046896;28;20087;-81
2022/09/07 08:21:03;;;;;;;35.70;32.40;;;;;;;17.71;93.41;101213.91;5047578;28;20036;-80
2022/09/07 08:23:30;;;;;;;34.63;31.42;;;;;;;17.93;93.27;101221.19;5025599;28;20051;-81
2022/09/07 08:25:59;;;;;;;36.60;33.50;;;;;;;17.97;93.93;101225.13;5028572;28;20021;-80
2022/09/07 08:28:27;;;;;;;34.78;31.80;;;;;;;18.00;93.07;101216.91;5042716;28;20025;-81
2022/09/07 08:30:54;;;;;;;34.95;31.92;;;;;;;17.96;92.03;101220.88;5029522;28;20468;-81
2022/09/07 08:33:19;;;;;;;33.80;30.90;;;;;;;17.93;91.98;101221.19;5044249;28;20519;-81
2022/09/07 08:35:55;;;;;;;32.08;29.38;;;;;;;18.04;91.65;101226.13;5028882;28;20061;-80
2022/09/07 08:38:20;;;;;;;35.03;32.13;;;;;;;18.13;91.45;101226.13;5043223;28;20060;-81
2022/09/07 08:40:48;;;;;;;35.28;32.08;;;;;;;17.95;91.17;101214.00;5025153;28;20111;-81
2022/09/07 08:43:23;;;;;;;35.08;31.98;;;;;;;18.09;91.05;101214.31;5034347;28;20022;-81
2022/09/07 08:45:53;;;;;;;34.92;31.65;;;;;;;18.16;90.61;101220.53;5034827;28;20078;-81
2022/09/07 08:48:24;;;;;;;32.20;29.50;;;;;;;18.27;89.78;101228.06;5024357;28;20053;-81
2022/09/07 08:51:03;;;;;;;33.95;30.90;;;;;;;18.32;90.28;101225.78;5034620;28;20034;-81
2022/09/07 08:53:29;;;;;;;33.05;30.08;;;;;;;18.47;90.15;101234.63;5037372;28;20032;-81
2022/09/07 08:56:00;;;;;;;33.95;31.05;;;;;;;18.60;90.39;101234.13;5016002;28;20083;-81
2022/09/07 08:58:31;;;;;;;34.08;31.17;;;;;;;18.55;89.89;101231.16;5038648;28;20040;-81
2022/09/07 09:00:57;;;;;;;33.08;30.15;;;;;;;18.52;88.31;101232.34;5046889;28;20037;-81
2022/09/07 09:03:30;;;;;;;32.38;29.60;;;;;;;18.62;88.21;101226.88;5046475;28;20033;-81
2022/09/07 09:06:14;;;;;;;31.48;28.77;;;;;;;18.69;87.56;101233.13;5040972;28;20503;-81
2022/09/07 09:08:49;;;;;;;31.77;28.88;;;;;;;18.76;87.21;101228.84;5040649;28;20503;-81
2022/09/07 09:11:24;;;;;;;31.38;28.67;;;;;;;18.79;86.39;101225.06;5017959;28;20032;-81
2022/09/07 09:14:01;;;;;;;30.80;28.10;;;;;;;18.86;86.81;101220.75;5028072;28;20075;-81
2022/09/07 09:17:10;;;;;;;30.13;27.52;;;;;;;19.06;86.44;101227.25;5045843;28;20037;-82
2022/09/07 09:19:50;;;;;;;29.70;27.15;;;;;;;19.16;86.30;101236.75;4964297;28;20086;-81
2022/09/07 09:22:22;;;;;;;29.33;26.75;;;;;;;19.23;86.03;101235.06;4960094;28;20073;-81
2022/09/07 09:24:55;;;;;;;28.25;25.75;;;;;;;19.39;85.91;101234.19;4965089;28;20050;-81
2022/09/07 09:27:21;;;;;;;26.85;24.48;;;;;;;19.47;85.50;101236.75;4959217;28;20038;-81
2022/09/07 09:29:46;;;;;;;24.40;22.30;;;;;;;19.56;84.88;101226.03;4956759;28;20050;-82
2022/09/07 09:32:33;;;;;;;23.65;21.55;;;;;;;19.69;83.20;101227.28;4954843;28;20383;-81
2022/09/07 09:35:27;;;;;;;23.33;21.10;;;;;;;19.72;83.19;101219.03;4965104;28;20050;-82
2022/09/07 09:37:53;;;;;;;20.80;19.00;;;;;;;19.65;80.39;101212.81;4965659;28;20066;-81
2022/09/07 09:40:22;;;;;;;20.20;18.40;;;;;;;19.82;81.22;101224.88;4964880;28;20039;-82
2022/09/07 09:43:00;;;;;;;20.30;18.50;;;;;;;20.01;82.50;101224.38;4965175;28;20057;-81
2022/09/07 09:45:28;;;;;;;18.70;17.00;;;;;;;19.98;80.27;101214.22;4965081;28;20118;-82
2022/09/07 09:47:53;;;;;;;18.30;16.70;;;;;;;20.05;79.86;101236.22;4965003;28;20497;-82
2022/09/07 09:50:36;;;;;;;17.15;15.45;;;;;;;20.04;79.97;101234.56;4964832;28;20068;-82
2022/09/07 09:53:04;;;;;;;17.55;15.90;;;;;;;19.94;78.95;101223.47;4985239;28;20544;-82
2022/09/07 09:55:35;;;;;;;18.00;16.33;;;;;;;20.11;79.26;101214.44;5044942;28;20024;-81
2022/09/07 09:58:25;;;;;;;16.67;15.10;;;;;;;20.31;79.98;101229.75;5041271;28;20021;-81
2022/09/07 10:01:05;;;;;;;15.30;13.80;;;;;;;20.46;79.50;101227.16;5031380;28;20033;-81
2022/09/07 10:03:33;;;;;;;17.08;15.43;;;;;;;20.51;77.73;101225.63;5034988;28;20043;-81
2022/09/07 10:06:06;;;;;;;17.83;16.20;;;;;;;20.43;77.82;101223.84;5039260;28;20059;-81
2022/09/07 10:08:33;;;;;;;17.38;15.82;;;;;;;20.69;79.18;101218.16;5040972;28;20020;-81
2022/09/07 10:11:02;;;;;;;18.03;16.27;;;;;;;20.74;77.50;101219.44;5045765;28;20528;-81
2022/09/07 10:13:33;;;;;;;17.60;15.95;;;;;;;20.78;77.46;101216.28;5020773;28;20176;-81
2022/09/07 10:16:02;;;;;;;17.20;15.68;;;;;;;20.86;76.86;101217.97;5024036;28;20479;-81
2022/09/07 10:18:34;;;;;;;17.08;15.45;;;;;;;21.05;77.34;101217.44;5021635;28;20053;-81
2022/09/07 10:21:29;;;;;;;13.15;11.95;;;;;;;21.20;76.01;101220.84;5015818;28;20040;-81
2022/09/07 10:24:06;;;;;;;13.13;11.82;;;;;;;21.14;75.48;101221.59;5026325;28;20035;-81
2022/09/07 10:26:37;;;;;;;11.77;10.27;;;;;;;21.24;73.26;101210.75;5024500;28;20057;-81
2022/09/07 10:29:06;;;;;;;11.50;10.40;;;;;;;21.32;74.24;101212.47;5014861;28;20288;-80
2022/09/07 10:31:35;;;;;;;11.25;10.07;;;;;;;21.51;73.07;101211.91;5012857;28;20025;-81
2022/09/07 10:34:21;;;;;;;10.25;9.10;;;;;;;21.58;71.10;101212.78;5024633;28;20032;-81
2022/09/07 10:37:04;;;;;;;11.85;9.68;;;;;;;21.51;72.04;101205.81;5021287;28;20447;-80
2022/09/07 10:39:40;;;;;;;11.63;10.32;;;;;;;21.55;71.04;101202.56;5013559;28;20040;-80
2022/09/07 10:42:12;;;;;;;10.85;9.82;;;;;;;21.60;71.15;101200.19;5013910;28;20033;-80
2022/09/07 10:45:09;;;;;;;11.43;10.23;;;;;;;21.78;70.62;101212.13;5013832;28;20559;-81
2022/09/07 10:47:45;;;;;;;11.85;9.18;;;;;;;21.84;69.94;101206.91;5015954;28;20029;-81
2022/09/07 10:50:23;;;;;;;10.43;8.80;;;;;;;21.73;68.98;101199.50;5025247;28;20037;-81
2022/09/07 10:53:17;;;;;;;10.40;9.13;;;;;;;21.87;70.89;101203.09;5022089;28;20025;-80
2022/09/07 10:56:06;;;;;;;11.32;8.43;;;;;;;21.93;70.56;101199.69;5017820;28;20029;-82
2022/09/07 10:58:40;;;;;;;10.13;6.40;;;;;;;22.17;68.34;101196.66;5026073;28;20036;-82
2022/09/07 11:01:26;;;;;;;10.52;5.70;;;;;;;22.14;66.07;101190.94;5021278;28;20025;-81
2022/09/07 11:04:10;;;;;;;8.38;5.10;;;;;;;22.43;68.08;101195.19;5022728;28;20588;-81
2022/09/07 11:06:47;;;;;;;8.95;4.90;;;;;;;22.52;66.37;101194.03;5017373;28;20496;-81
2022/09/07 11:09:33;;;;;;;7.70;4.55;;;;;;;22.63;67.08;101196.13;5013259;28;20484;-81
2022/09/07 11:12:19;;;;;;;9.75;5.75;;;;;;;22.58;66.53;101187.94;5027801;28;20100;-81
2022/09/07 11:14:51;;;;;;;8.35;5.50;;;;;;;22.51;65.20;101192.41;5036515;28;20519;-81
2022/09/07 11:17:21;;;;;;;10.45;5.38;;;;;;;22.66;64.40;101201.03;5024261;28;20118;-82
2022/09/07 11:19:52;;;;;;;8.27;5.00;;;;;;;22.79;64.27;101201.09;5031200;28;20552;-81
2022/09/07 11:22:26;;;;;;;10.25;4.97;;;;;;;22.95;63.79;101199.16;5039410;28;20465;-80
2022/09/07 11:24:58;;;;;;;9.48;4.60;;;;;;;23.04;63.46;101203.25;5044002;28;20087;-80
2022/09/07 11:27:32;;;;;;;8.18;4.20;;;;;;;22.95;63.96;101199.97;5040881;28;20033;-81
2022/09/07 11:30:03;;;;;;;10.70;4.72;;;;;;;22.85;62.72;101198.66;5044056;28;20078;-81
2022/09/07 11:32:36;;;;;;;8.93;4.75;;;;;;;22.67;63.97;101186.78;5039250;28;20033;-81
2022/09/07 11:35:23;;;;;;;8.95;4.50;;;;;;;22.71;65.46;101193.34;5034758;28;20104;-81
2022/09/07 11:37:58;;;;;;;9.57;4.40;;;;;;;22.67;63.13;101192.06;5035705;28;20037;-82
2022/09/07 11:40:34;;;;;;;9.10;4.55;;;;;;;22.64;63.85;101192.47;5048337;28;20029;-81
2022/09/07 11:43:33;;;;;;;10.20;4.15;;;;;;;23.00;64.02;101191.44;5027936;28;20029;-80